Crow Hill, Vermont
Current Conditions -  °F | °C
As of 5:35 PM on Saturday 25 Oct 2014 (Local Time) from KFSO Reporting Station
Moderate Rain Moderate Rain  
Wind Chill: 51°   Ceiling: 5500
Heat Index: 51°   Visibility: 7mi
Dew Point: 47°   Wind: 7mph
Humidity: 87%   Direction: 170°S
Pressure: 29.51"   Gusts: NA
Location:  44.8776°N, 72.9201°W
Report Text: KFSO 252135Z AUTO 17006KT 7SM RA SCT036 SCT050 OVC055 11/09 A2951 RMK AO2 T01060086
Loading
Personal Weather Stations






























Interactive Weather Map
Tropical Storm Tracking
New forecast layout! Learn more

10-Day Weather Forecast

Advertisements
Track Severe Weather on mobile